sensor_id;sensor_type;location;lat;lon;timestamp;pressure;altitude;pressure_sealevel;temperature;humidity
75697;BME280;64312;44.738;20.612;2022-12-19T00:02:04;102625.34;;;2.03;76.15
75697;BME280;64312;44.738;20.612;2022-12-19T00:04:31;102620.09;;;2.02;76.43
75697;BME280;64312;44.738;20.612;2022-12-19T00:06:57;102621.91;;;2.01;76.32
75697;BME280;64312;44.738;20.612;2022-12-19T00:09:23;102612.28;;;1.99;76.14
75697;BME280;64312;44.738;20.612;2022-12-19T00:11:49;102621.06;;;2.01;75.72
75697;BME280;64312;44.738;20.612;2022-12-19T00:14:15;102623.63;;;2.02;76.13
75697;BME280;64312;44.738;20.612;2022-12-19T00:16:41;102623.63;;;2.02;75.57
75697;BME280;64312;44.738;20.612;2022-12-19T00:19:08;102629.69;;;2.04;75.80
75697;BME280;64312;44.738;20.612;2022-12-19T00:21:35;102628.84;;;2.04;76.25
75697;BME280;64312;44.738;20.612;2022-12-19T00:24:01;102634.94;;;2.06;76.16
75697;BME280;64312;44.738;20.612;2022-12-19T00:26:33;102645.56;;;2.06;76.02
75697;BME280;64312;44.738;20.612;2022-12-19T00:29:02;102648.28;;;2.04;76.31
75697;BME280;64312;44.738;20.612;2022-12-19T00:31:31;102638.47;;;2.06;75.74
75697;BME280;64312;44.738;20.612;2022-12-19T00:33:57;102629.69;;;2.04;76.21
75697;BME280;64312;44.738;20.612;2022-12-19T00:36:26;102626.09;;;2.05;75.75
75697;BME280;64312;44.738;20.612;2022-12-19T00:38:53;102615.41;;;2.07;75.88
75697;BME280;64312;44.738;20.612;2022-12-19T00:41:22;102622.53;;;2.06;76.04
75697;BME280;64312;44.738;20.612;2022-12-19T00:43:52;102627.84;;;2.06;75.81
75697;BME280;64312;44.738;20.612;2022-12-19T00:46:18;102622.59;;;2.05;75.63
75697;BME280;64312;44.738;20.612;2022-12-19T00:48:44;102632.28;;;2.06;76.50
75697;BME280;64312;44.738;20.612;2022-12-19T00:51:12;102635.72;;;2.08;76.70
75697;BME280;64312;44.738;20.612;2022-12-19T00:53:41;102642.75;;;2.09;76.11
75697;BME280;64312;44.738;20.612;2022-12-19T00:56:10;102640.00;;;2.10;75.62
75697;BME280;64312;44.738;20.612;2022-12-19T00:58:37;102646.19;;;2.11;76.12
75697;BME280;64312;44.738;20.612;2022-12-19T01:01:07;102645.56;;;2.06;75.55
75697;BME280;64312;44.738;20.612;2022-12-19T01:03:34;102638.00;;;1.98;75.51
75697;BME280;64312;44.738;20.612;2022-12-19T01:06:00;102640.66;;;1.98;75.71
75697;BME280;64312;44.738;20.612;2022-12-19T01:08:25;102640.66;;;1.98;76.17
75697;BME280;64312;44.738;20.612;2022-12-19T01:10:52;102639.66;;;2.01;75.79
75697;BME280;64312;44.738;20.612;2022-12-19T01:13:19;102633.47;;;2.00;76.20
75697;BME280;64312;44.738;20.612;2022-12-19T01:15:45;102633.47;;;2.00;76.13
75697;BME280;64312;44.738;20.612;2022-12-19T01:18:11;102629.97;;;2.00;76.26
75697;BME280;64312;44.738;20.612;2022-12-19T01:20:42;102633.69;;;1.96;76.29
75697;BME280;64312;44.738;20.612;2022-12-19T01:23:08;102633.53;;;1.99;76.36
75697;BME280;64312;44.738;20.612;2022-12-19T01:25:36;102633.47;;;2.00;76.21
75697;BME280;64312;44.738;20.612;2022-12-19T01:28:03;102618.44;;;1.99;76.33
75697;BME280;64312;44.738;20.612;2022-12-19T01:30:30;102635.00;;;2.04;75.72
75697;BME280;64312;44.738;20.612;2022-12-19T01:32:57;102629.69;;;2.04;76.89
75697;BME280;64312;44.738;20.612;2022-12-19T01:35:26;102631.28;;;2.08;76.10
75697;BME280;64312;44.738;20.612;2022-12-19T01:37:52;102625.19;;;2.06;75.93
75697;BME280;64312;44.738;20.612;2022-12-19T01:40:19;102626.09;;;2.05;76.09
75697;BME280;64312;44.738;20.612;2022-12-19T01:42:46;102618.94;;;2.07;76.04
75697;BME280;64312;44.738;20.612;2022-12-19T01:47:46;102611.72;;;2.09;76.55
75697;BME280;64312;44.738;20.612;2022-12-19T01:50:16;102617.97;;;2.08;76.09
75697;BME280;64312;44.738;20.612;2022-12-19T01:52:44;102614.47;;;2.08;76.18
75697;BME280;64312;44.738;20.612;2022-12-19T01:55:10;102614.56;;;2.06;76.33
75697;BME280;64312;44.738;20.612;2022-12-19T01:57:39;102605.78;;;2.04;76.33
75697;BME280;64312;44.738;20.612;2022-12-19T02:00:06;102613.44;;;2.10;76.46
75697;BME280;64312;44.738;20.612;2022-12-19T02:02:45;102606.41;;;2.09;76.38
75697;BME280;64312;44.738;20.612;2022-12-19T02:05:14;102598.25;;;2.12;76.26
75697;BME280;64312;44.738;20.612;2022-12-19T02:07:42;102596.41;;;2.14;76.22
75697;BME280;64312;44.738;20.612;2022-12-19T02:10:08;102594.69;;;2.13;76.12
75697;BME280;64312;44.738;20.612;2022-12-19T02:12:36;102593.75;;;2.14;75.68
75697;BME280;64312;44.738;20.612;2022-12-19T02:15:06;102590.25;;;2.14;76.05
75697;BME280;64312;44.738;20.612;2022-12-19T02:20:50;102591.94;;;2.15;76.15
75697;BME280;64312;44.738;20.612;2022-12-19T02:23:40;102585.78;;;2.14;76.19
75697;BME280;64312;44.738;20.612;2022-12-19T02:32:03;102580.59;;;2.11;76.34
75697;BME280;64312;44.738;20.612;2022-12-19T02:35:02;102595.56;;;2.14;76.15
75697;BME280;64312;44.738;20.612;2022-12-19T02:37:33;102591.09;;;2.14;76.36
75697;BME280;64312;44.738;20.612;2022-12-19T02:40:22;102590.16;;;2.15;75.88
75697;BME280;64312;44.738;20.612;2022-12-19T02:42:53;102590.16;;;2.15;76.26
75697;BME280;64312;44.738;20.612;2022-12-19T02:45:22;102585.78;;;2.14;76.87
75697;BME280;64312;44.738;20.612;2022-12-19T02:47:50;102581.41;;;2.13;76.60
75697;BME280;64312;44.738;20.612;2022-12-19T02:50:16;102586.72;;;2.13;76.72
75697;BME280;64312;44.738;20.612;2022-12-19T02:52:44;102589.38;;;2.13;76.41
75697;BME280;64312;44.738;20.612;2022-12-19T02:55:13;102582.25;;;2.14;76.46
75697;BME280;64312;44.738;20.612;2022-12-19T03:00:55;102582.31;;;2.12;76.47
75697;BME280;64312;44.738;20.612;2022-12-19T03:08:58;102577.81;;;2.14;75.77
75697;BME280;64312;44.738;20.612;2022-12-19T03:11:30;102573.44;;;2.13;75.81
75697;BME280;64312;44.738;20.612;2022-12-19T03:14:07;102576.25;;;2.10;76.55
75697;BME280;64312;44.738;20.612;2022-12-19T03:16:35;102574.63;;;2.08;76.26
75697;BME280;64312;44.738;20.612;2022-12-19T03:19:02;102575.47;;;2.08;76.25
75697;BME280;64312;44.738;20.612;2022-12-19T03:21:36;102571.03;;;2.09;75.58
75697;BME280;64312;44.738;20.612;2022-12-19T03:24:04;102572.81;;;2.08;75.97
75697;BME280;64312;44.738;20.612;2022-12-19T03:26:35;102579.00;;;2.09;76.37
75697;BME280;64312;44.738;20.612;2022-12-19T03:29:08;102580.78;;;2.08;76.11
75697;BME280;64312;44.738;20.612;2022-12-19T03:31:38;102579.00;;;2.09;75.92
75697;BME280;64312;44.738;20.612;2022-12-19T03:34:12;102571.88;;;2.09;75.88
75697;BME280;64312;44.738;20.612;2022-12-19T03:36:43;102570.06;;;2.10;nan
75697;BME280;64312;44.738;20.612;2022-12-19T03:39:11;102565.63;;;2.10;76.42
75697;BME280;64312;44.738;20.612;2022-12-19T03:41:39;102572.81;;;2.08;75.87
75697;BME280;64312;44.738;20.612;2022-12-19T03:44:29;102572.81;;;2.08;76.18
75697;BME280;64312;44.738;20.612;2022-12-19T03:47:05;102562.75;;;1.98;76.21
75697;BME280;64312;44.738;20.612;2022-12-19T03:49:32;102559.31;;;1.96;76.20
75697;BME280;64312;44.738;20.612;2022-12-19T03:52:11;102570.91;;;1.95;76.50
75697;BME280;64312;44.738;20.612;2022-12-19T03:54:50;102566.59;;;1.92;75.58
75697;BME280;64312;44.738;20.612;2022-12-19T03:57:47;102554.56;;;1.85;75.96
75697;BME280;64312;44.738;20.612;2022-12-19T04:00:16;102565.50;;;1.79;75.89
75697;BME280;64312;44.738;20.612;2022-12-19T04:02:48;102563.19;;;1.73;76.09
75697;BME280;64312;44.738;20.612;2022-12-19T04:05:21;102570.38;;;1.71;76.21
75697;BME280;64312;44.738;20.612;2022-12-19T04:07:48;102571.63;;;1.63;75.73
75697;BME280;64312;44.738;20.612;2022-12-19T04:10:19;102572.88;;;1.56;75.71
75697;BME280;64312;44.738;20.612;2022-12-19T04:12:50;102569.78;;;1.48;76.02
75697;BME280;64312;44.738;20.612;2022-12-19T04:15:20;102571.94;;;1.40;76.01
75697;BME280;64312;44.738;20.612;2022-12-19T04:17:57;102576.84;;;1.30;75.96
75697;BME280;64312;44.738;20.612;2022-12-19T04:20:26;102585.13;;;1.24;75.91
75697;BME280;64312;44.738;20.612;2022-12-19T04:23:10;102574.94;;;1.15;76.46
75697;BME280;64312;44.738;20.612;2022-12-19T04:25:42;102570.09;;;1.06;75.85
75697;BME280;64312;44.738;20.612;2022-12-19T04:28:16;102577.63;;;0.96;76.48
75697;BME280;64312;44.738;20.612;2022-12-19T04:30:44;102581.41;;;0.92;76.14
75697;BME280;64312;44.738;20.612;2022-12-19T04:33:10;102587.00;;;0.86;76.59
75697;BME280;64312;44.738;20.612;2022-12-19T04:35:36;102583.69;;;0.81;76.82
75697;BME280;64312;44.738;20.612;2022-12-19T04:38:02;102596.81;;;0.84;77.25
75697;BME280;64312;44.738;20.612;2022-12-19T04:40:28;102591.50;;;0.84;77.61
75697;BME280;64312;44.738;20.612;2022-12-19T04:42:54;102597.50;;;0.88;77.75
75697;BME280;64312;44.738;20.612;2022-12-19T04:45:19;102609.91;;;0.87;78.16
75697;BME280;64312;44.738;20.612;2022-12-19T04:47:46;102614.28;;;0.88;78.19
75697;BME280;64312;44.738;20.612;2022-12-19T04:50:11;102610.69;;;0.89;78.07
75697;BME280;64312;44.738;20.612;2022-12-19T04:52:37;102609.78;;;0.90;78.21
75697;BME280;64312;44.738;20.612;2022-12-19T04:55:03;102606.19;;;0.91;78.41
75697;BME280;64312;44.738;20.612;2022-12-19T04:57:30;102612.06;;;0.98;78.51
75697;BME280;64312;44.738;20.612;2022-12-19T04:59:56;102607.63;;;0.98;78.48
75697;BME280;64312;44.738;20.612;2022-12-19T05:02:22;102610.09;;;1.01;78.67
75697;BME280;64312;44.738;20.612;2022-12-19T05:04:49;102607.31;;;1.04;78.32
75697;BME280;64312;44.738;20.612;2022-12-19T05:07:15;102605.44;;;1.06;78.48
75697;BME280;64312;44.738;20.612;2022-12-19T05:09:43;102592.19;;;1.06;78.44
75697;BME280;64312;44.738;20.612;2022-12-19T05:12:10;102573.53;;;1.08;78.71
75697;BME280;64312;44.738;20.612;2022-12-19T05:14:37;102573.47;;;1.10;78.43
75697;BME280;64312;44.738;20.612;2022-12-19T05:17:03;102567.25;;;1.11;78.46
75697;BME280;64312;44.738;20.612;2022-12-19T05:19:28;102573.47;;;1.10;77.70
75697;BME280;64312;44.738;20.612;2022-12-19T05:21:54;102576.19;;;1.08;77.86
75697;BME280;64312;44.738;20.612;2022-12-19T05:24:20;102568.31;;;1.06;78.13
75697;BME280;64312;44.738;20.612;2022-12-19T05:26:47;102572.13;;;1.01;77.91
75697;BME280;64312;44.738;20.612;2022-12-19T05:29:13;102578.56;;;0.95;78.24
75697;BME280;64312;44.738;20.612;2022-12-19T05:31:38;102573.56;;;0.89;78.19
75697;BME280;64312;44.738;20.612;2022-12-19T05:34:04;102566.53;;;0.88;78.21
75697;BME280;64312;44.738;20.612;2022-12-19T05:36:29;102561.25;;;0.88;78.42
75697;BME280;64312;44.738;20.612;2022-12-19T05:38:55;102571.84;;;0.88;78.51
75697;BME280;64312;44.738;20.612;2022-12-19T05:41:21;102584.19;;;0.89;78.39
75697;BME280;64312;44.738;20.612;2022-12-19T05:43:52;102577.88;;;0.92;78.56
75697;BME280;64312;44.738;20.612;2022-12-19T05:46:19;102578.81;;;0.91;78.87
75697;BME280;64312;44.738;20.612;2022-12-19T05:48:46;102574.38;;;0.91;79.05
75697;BME280;64312;44.738;20.612;2022-12-19T05:51:12;102588.13;;;0.99;78.96
75697;BME280;64312;44.738;20.612;2022-12-19T05:53:38;102599.38;;;1.04;78.68
75697;BME280;64312;44.738;20.612;2022-12-19T05:56:09;102604.50;;;1.07;78.81
75697;BME280;64312;44.738;20.612;2022-12-19T05:58:36;102603.44;;;1.12;79.29
75697;BME280;64312;44.738;20.612;2022-12-19T06:01:03;102595.31;;;1.15;78.91
75697;BME280;64312;44.738;20.612;2022-12-19T06:03:29;102581.28;;;1.13;78.92
75697;BME280;64312;44.738;20.612;2022-12-19T06:05:54;102589.88;;;1.18;78.78
75697;BME280;64312;44.738;20.612;2022-12-19T06:08:21;102575.66;;;1.19;78.78
75697;BME280;64312;44.738;20.612;2022-12-19T06:10:46;102581.91;;;1.18;78.97
75697;BME280;64312;44.738;20.612;2022-12-19T06:13:12;102584.47;;;1.19;78.48
75697;BME280;64312;44.738;20.612;2022-12-19T06:15:38;102586.91;;;1.24;78.70
75697;BME280;64312;44.738;20.612;2022-12-19T06:18:03;102588.72;;;1.23;78.97
75697;BME280;64312;44.738;20.612;2022-12-19T06:20:29;102600.19;;;1.24;78.51
75697;BME280;64312;44.738;20.612;2022-12-19T06:22:55;102592.06;;;1.27;78.78
75697;BME280;64312;44.738;20.612;2022-12-19T06:25:20;102598.31;;;1.26;78.51
75697;BME280;64312;44.738;20.612;2022-12-19T06:27:46;102599.06;;;1.28;78.73
75697;BME280;64312;44.738;20.612;2022-12-19T06:30:12;102614.00;;;1.30;78.84
75697;BME280;64312;44.738;20.612;2022-12-19T06:32:38;102611.44;;;1.29;78.58
75697;BME280;64312;44.738;20.612;2022-12-19T06:35:04;102609.69;;;1.28;78.46
75697;BME280;64312;44.738;20.612;2022-12-19T06:37:30;102606.19;;;1.27;78.33
75697;BME280;64312;44.738;20.612;2022-12-19T06:39:56;102609.38;;;1.34;78.38
75697;BME280;64312;44.738;20.612;2022-12-19T06:42:21;102610.09;;;1.38;78.50
75697;BME280;64312;44.738;20.612;2022-12-19T06:44:49;102599.41;;;1.39;78.49
75697;BME280;64312;44.738;20.612;2022-12-19T06:47:14;102606.22;;;1.45;78.50
75697;BME280;64312;44.738;20.612;2022-12-19T06:49:41;102613.94;;;1.49;78.56
75697;BME280;64312;44.738;20.612;2022-12-19T06:52:06;102608.66;;;1.49;78.04
75697;BME280;64312;44.738;20.612;2022-12-19T06:54:32;102608.34;;;1.55;78.21
75697;BME280;64312;44.738;20.612;2022-12-19T06:56:57;102607.13;;;1.61;78.31
75697;BME280;64312;44.738;20.612;2022-12-19T06:59:23;102610.59;;;1.63;78.35
75697;BME280;64312;44.738;20.612;2022-12-19T07:04:43;102625.50;;;1.66;78.17
75697;BME280;64312;44.738;20.612;2022-12-19T07:07:12;102632.47;;;1.68;78.31
75697;BME280;64312;44.738;20.612;2022-12-19T07:09:38;102629.66;;;1.71;78.57
75697;BME280;64312;44.738;20.612;2022-12-19T07:12:03;102614.44;;;1.75;78.06
75697;BME280;64312;44.738;20.612;2022-12-19T07:14:32;102616.28;;;1.73;78.14
75697;BME280;64312;44.738;20.612;2022-12-19T07:16:58;102617.00;;;1.76;77.81
75697;BME280;64312;44.738;20.612;2022-12-19T07:19:26;102622.41;;;1.75;77.79
75697;BME280;64312;44.738;20.612;2022-12-19T07:21:54;102619.78;;;1.73;77.75
75697;BME280;64312;44.738;20.612;2022-12-19T07:24:20;102633.94;;;1.74;77.55
75697;BME280;64312;44.738;20.612;2022-12-19T07:26:45;102635.97;;;1.69;77.57
75697;BME280;64312;44.738;20.612;2022-12-19T07:29:11;102634.28;;;1.68;77.60
75697;BME280;64312;44.738;20.612;2022-12-19T07:31:38;102620.91;;;1.69;77.01
75697;BME280;64312;44.738;20.612;2022-12-19T07:34:03;102628.88;;;1.69;77.50
75697;BME280;64312;44.738;20.612;2022-12-19T07:36:29;102628.97;;;1.68;76.95
75697;BME280;64312;44.738;20.612;2022-12-19T07:38:55;102619.34;;;1.65;77.00
75697;BME280;64312;44.738;20.612;2022-12-19T07:41:20;102615.75;;;1.66;77.03
75697;BME280;64312;44.738;20.612;2022-12-19T07:43:46;102611.28;;;1.67;77.18
75697;BME280;64312;44.738;20.612;2022-12-19T07:46:12;102607.84;;;1.65;77.11
75697;BME280;64312;44.738;20.612;2022-12-19T07:48:37;102592.88;;;1.63;77.21
75697;BME280;64312;44.738;20.612;2022-12-19T07:51:03;102593.63;;;1.66;77.25
75697;BME280;64312;44.738;20.612;2022-12-19T07:53:29;102586.38;;;1.69;77.06
75697;BME280;64312;44.738;20.612;2022-12-19T07:55:55;102584.41;;;1.73;76.30
75697;BME280;64312;44.738;20.612;2022-12-19T07:58:21;102587.69;;;1.78;76.41
75697;BME280;64312;44.738;20.612;2022-12-19T08:00:56;102586.53;;;1.83;76.38
75697;BME280;64312;44.738;20.612;2022-12-19T08:03:23;102588.00;;;1.89;75.63
75697;BME280;64312;44.738;20.612;2022-12-19T08:05:49;102588.63;;;1.94;75.30
75697;BME280;64312;44.738;20.612;2022-12-19T08:08:15;102586.75;;;1.96;75.31
75697;BME280;64312;44.738;20.612;2022-12-19T08:10:41;102601.50;;;2.02;74.68
75697;BME280;64312;44.738;20.612;2022-12-19T08:13:07;102599.47;;;2.07;74.79
75697;BME280;64312;44.738;20.612;2022-12-19T08:15:33;102595.78;;;2.09;74.60
75697;BME280;64312;44.738;20.612;2022-12-19T08:17:59;102595.56;;;2.14;74.27
75697;BME280;64312;44.738;20.612;2022-12-19T08:20:25;102588.19;;;2.19;73.85
75697;BME280;64312;44.738;20.612;2022-12-19T08:22:51;102601.22;;;2.24;73.19
75697;BME280;64312;44.738;20.612;2022-12-19T08:25:17;102609.72;;;2.30;73.06
75697;BME280;64312;44.738;20.612;2022-12-19T08:27:42;102607.78;;;2.34;72.15
75697;BME280;64312;44.738;20.612;2022-12-19T08:30:08;102604.88;;;2.38;72.90
75697;BME280;64312;44.738;20.612;2022-12-19T08:32:34;102608.06;;;2.45;71.65
75697;BME280;64312;44.738;20.612;2022-12-19T08:35:00;102604.38;;;2.48;71.38
75697;BME280;64312;44.738;20.612;2022-12-19T08:37:25;102601.59;;;2.49;70.93
75697;BME280;64312;44.738;20.612;2022-12-19T08:39:51;102595.97;;;2.55;70.82
75697;BME280;64312;44.738;20.612;2022-12-19T08:42:17;102597.75;;;2.55;71.13
75697;BME280;64312;44.738;20.612;2022-12-19T08:44:42;102604.56;;;2.60;71.12
75697;BME280;64312;44.738;20.612;2022-12-19T08:47:08;102609.69;;;2.63;70.68
75697;BME280;64312;44.738;20.612;2022-12-19T08:49:34;102625.31;;;2.69;71.08
75697;BME280;64312;44.738;20.612;2022-12-19T08:51:59;102618.03;;;2.73;70.98
75697;BME280;64312;44.738;20.612;2022-12-19T08:54:25;102619.59;;;2.77;70.68
75697;BME280;64312;44.738;20.612;2022-12-19T08:56:51;102608.66;;;2.82;70.56
75697;BME280;64312;44.738;20.612;2022-12-19T08:59:16;102606.81;;;2.84;70.42
75697;BME280;64312;44.738;20.612;2022-12-19T09:01:42;102601.47;;;2.84;70.49
75697;BME280;64312;44.738;20.612;2022-12-19T09:04:08;102597.69;;;2.88;70.14
75697;BME280;64312;44.738;20.612;2022-12-19T09:06:34;102582.59;;;2.88;69.85
75697;BME280;64312;44.738;20.612;2022-12-19T09:08:59;102584.81;;;2.96;69.62
75697;BME280;64312;44.738;20.612;2022-12-19T09:11:25;102575.81;;;2.98;69.47
75697;BME280;64312;44.738;20.612;2022-12-19T09:13:54;102574.75;;;3.01;69.22
75697;BME280;64312;44.738;20.612;2022-12-19T09:16:22;102561.22;;;3.06;69.22
75697;BME280;64312;44.738;20.612;2022-12-19T09:18:51;102559.25;;;3.09;68.99
75697;BME280;64312;44.738;20.612;2022-12-19T09:21:18;102561.50;;;3.15;69.47
75697;BME280;64312;44.738;20.612;2022-12-19T09:23:50;102564.78;;;3.20;68.71
75697;BME280;64312;44.738;20.612;2022-12-19T09:26:17;102556.44;;;3.26;68.33
75697;BME280;64312;44.738;20.612;2022-12-19T09:28:44;102554.97;;;3.37;69.23
75697;BME280;64312;44.738;20.612;2022-12-19T09:31:19;102563.44;;;3.43;68.35
75697;BME280;64312;44.738;20.612;2022-12-19T09:33:45;102557.41;;;3.56;68.20
75697;BME280;64312;44.738;20.612;2022-12-19T09:36:16;102559.38;;;3.66;68.50
75697;BME280;64312;44.738;20.612;2022-12-19T09:38:43;102563.03;;;3.79;68.16
75697;BME280;64312;44.738;20.612;2022-12-19T09:49:18;102548.38;;;4.44;66.58
75697;BME280;64312;44.738;20.612;2022-12-19T09:52:04;102543.03;;;4.58;66.08
75697;BME280;64312;44.738;20.612;2022-12-19T09:54:37;102536.91;;;4.70;65.93
75697;BME280;64312;44.738;20.612;2022-12-19T09:57:12;102528.84;;;4.84;65.14
75697;BME280;64312;44.738;20.612;2022-12-19T10:07:42;102509.22;;;5.25;64.25
75697;BME280;64312;44.738;20.612;2022-12-19T10:10:14;102516.06;;;5.29;63.53
75697;BME280;64312;44.738;20.612;2022-12-19T10:12:56;102515.56;;;5.37;63.33
75697;BME280;64312;44.738;20.612;2022-12-19T10:20:41;102508.09;;;5.55;62.99
75697;BME280;64312;44.738;20.612;2022-12-19T10:23:51;102515.78;;;5.59;62.42
75697;BME280;64312;44.738;20.612;2022-12-19T10:32:02;102491.66;;;5.74;62.21
75697;BME280;64312;44.738;20.612;2022-12-19T10:34:38;102490.34;;;5.79;61.98
75697;BME280;64312;44.738;20.612;2022-12-19T10:37:24;102480.00;;;5.87;62.09
75697;BME280;64312;44.738;20.612;2022-12-19T10:40:14;102486.06;;;5.89;61.77
75697;BME280;64312;44.738;20.612;2022-12-19T10:45:19;102495.63;;;5.93;61.29
75697;BME280;64312;44.738;20.612;2022-12-19T10:47:46;102490.16;;;5.95;61.42
75697;BME280;64312;44.738;20.612;2022-12-19T10:50:21;102497.94;;;5.98;61.31
75697;BME280;64312;44.738;20.612;2022-12-19T11:03:22;102469.81;;;6.05;60.26
75697;BME280;64312;44.738;20.612;2022-12-19T11:05:53;102466.09;;;6.08;60.85
75697;BME280;64312;44.738;20.612;2022-12-19T11:08:23;102457.31;;;6.06;60.31
75697;BME280;64312;44.738;20.612;2022-12-19T11:10:54;102450.78;;;6.10;60.76
75697;BME280;64312;44.738;20.612;2022-12-19T11:13:28;102437.69;;;6.18;65.60
75697;BME280;64312;44.738;20.612;2022-12-19T11:16:06;102431.41;;;6.43;66.19
75697;BME280;64312;44.738;20.612;2022-12-19T11:18:42;102428.41;;;6.47;63.65
75697;BME280;64312;44.738;20.612;2022-12-19T11:21:30;102437.28;;;6.48;63.47
75697;BME280;64312;44.738;20.612;2022-12-19T11:24:02;102438.97;;;6.49;62.92
75697;BME280;64312;44.738;20.612;2022-12-19T11:29:25;102424.91;;;6.34;62.08
75697;BME280;64312;44.738;20.612;2022-12-19T11:32:00;102440.38;;;6.18;62.10
75697;BME280;64312;44.738;20.612;2022-12-19T11:34:31;102432.50;;;6.04;61.93
75697;BME280;64312;44.738;20.612;2022-12-19T11:37:17;102436.91;;;5.92;61.64
75697;BME280;64312;44.738;20.612;2022-12-19T11:39:50;102429.84;;;5.78;62.08
75697;BME280;64312;44.738;20.612;2022-12-19T11:42:25;102424.19;;;5.70;61.41
75697;BME280;64312;44.738;20.612;2022-12-19T11:45:10;102413.19;;;5.62;61.69
75697;BME280;64312;44.738;20.612;2022-12-19T11:47:44;102413.94;;;5.51;62.59
75697;BME280;64312;44.738;20.612;2022-12-19T11:50:17;102421.97;;;5.38;62.32
75697;BME280;64312;44.738;20.612;2022-12-19T11:56:09;102432.31;;;5.18;62.98
75697;BME280;64312;44.738;20.612;2022-12-19T11:58:36;102437.31;;;5.09;63.34
75697;BME280;64312;44.738;20.612;2022-12-19T12:04:43;102437.63;;;5.05;63.97
75697;BME280;64312;44.738;20.612;2022-12-19T12:07:13;102447.47;;;5.04;63.34
75697;BME280;64312;44.738;20.612;2022-12-19T12:09:44;102449.06;;;5.07;63.00
75697;BME280;64312;44.738;20.612;2022-12-19T12:12:23;102449.91;;;5.07;63.43
75697;BME280;64312;44.738;20.612;2022-12-19T12:18:11;102439.34;;;5.06;63.84
75697;BME280;64312;44.738;20.612;2022-12-19T12:21:07;102425.78;;;5.09;63.35
75697;BME280;64312;44.738;20.612;2022-12-19T12:26:51;102405.19;;;5.11;63.92
75697;BME280;64312;44.738;20.612;2022-12-19T12:29:24;102389.16;;;5.11;63.14
75697;BME280;64312;44.738;20.612;2022-12-19T12:45:49;102407.44;;;5.30;63.63
75697;BME280;64312;44.738;20.612;2022-12-19T12:49:04;102410.53;;;5.36;63.32
75697;BME280;64312;44.738;20.612;2022-12-19T12:51:23;102405.72;;;5.41;63.18
75697;BME280;64312;44.738;20.612;2022-12-19T12:53:58;102405.38;;;5.46;63.42
75697;BME280;64312;44.738;20.612;2022-12-19T12:56:26;102403.13;;;5.53;63.55
75697;BME280;64312;44.738;20.612;2022-12-19T13:01:29;102398.34;;;5.58;62.91
75697;BME280;64312;44.738;20.612;2022-12-19T13:06:41;102397.78;;;5.65;62.31
75697;BME280;64312;44.738;20.612;2022-12-19T13:11:37;102385.59;;;5.74;62.12
75697;BME280;64312;44.738;20.612;2022-12-19T13:19:53;102368.72;;;5.74;61.86
75697;BME280;64312;44.738;20.612;2022-12-19T13:22:21;102358.22;;;5.70;62.58
75697;BME280;64312;44.738;20.612;2022-12-19T13:24:56;102353.84;;;5.69;62.73
75697;BME280;64312;44.738;20.612;2022-12-19T13:32:26;102359.09;;;5.58;62.31
75697;BME280;64312;44.738;20.612;2022-12-19T13:34:58;102363.72;;;5.56;62.43
75697;BME280;64312;44.738;20.612;2022-12-19T13:37:38;102377.06;;;5.56;62.61
75697;BME280;64312;44.738;20.612;2022-12-19T13:45:55;102376.84;;;5.47;62.71
75697;BME280;64312;44.738;20.612;2022-12-19T13:50:52;102362.47;;;5.36;63.25
75697;BME280;64312;44.738;20.612;2022-12-19T13:53:22;102359.25;;;5.31;63.19
75697;BME280;64312;44.738;20.612;2022-12-19T13:55:53;102362.59;;;5.22;63.66
75697;BME280;64312;44.738;20.612;2022-12-19T13:58:22;102363.00;;;5.16;63.85
75697;BME280;64312;44.738;20.612;2022-12-19T14:00:49;102363.63;;;5.07;64.61
75697;BME280;64312;44.738;20.612;2022-12-19T14:03:20;102360.63;;;4.99;64.45
75697;BME280;64312;44.738;20.612;2022-12-19T14:05:48;102353.34;;;4.88;64.98
75697;BME280;64312;44.738;20.612;2022-12-19T14:08:20;102351.22;;;4.80;65.43
75697;BME280;64312;44.738;20.612;2022-12-19T14:10:47;102350.59;;;4.77;65.75
75697;BME280;64312;44.738;20.612;2022-12-19T14:13:19;102352.06;;;4.68;66.00
75697;BME280;64312;44.738;20.612;2022-12-19T14:16:04;102355.97;;;4.62;66.00
75697;BME280;64312;44.738;20.612;2022-12-19T14:18:32;102365.25;;;4.57;66.40
75697;BME280;64312;44.738;20.612;2022-12-19T14:23:36;102351.56;;;4.49;66.38
75697;BME280;64312;44.738;20.612;2022-12-19T14:26:03;102356.28;;;4.45;66.79
75697;BME280;64312;44.738;20.612;2022-12-19T14:28:52;102353.69;;;4.44;67.59
75697;BME280;64312;44.738;20.612;2022-12-19T14:31:19;102347.06;;;4.37;67.33
75697;BME280;64312;44.738;20.612;2022-12-19T14:33:47;102349.66;;;4.38;67.45
75697;BME280;64312;44.738;20.612;2022-12-19T14:36:20;102357.84;;;4.35;67.33
75697;BME280;64312;44.738;20.612;2022-12-19T14:38:47;102357.16;;;4.31;67.40
75697;BME280;64312;44.738;20.612;2022-12-19T14:41:34;102350.66;;;4.23;67.71
75697;BME280;64312;44.738;20.612;2022-12-19T14:44:20;102344.00;;;4.16;68.31
75697;BME280;64312;44.738;20.612;2022-12-19T14:47:08;102342.81;;;4.07;68.30
75697;BME280;64312;44.738;20.612;2022-12-19T14:49:34;102352.06;;;4.01;68.72
75697;BME280;64312;44.738;20.612;2022-12-19T14:52:04;102343.88;;;3.90;68.06
75697;BME280;64312;44.738;20.612;2022-12-19T14:55:26;102352.66;;;3.78;69.17
75697;BME280;64312;44.738;20.612;2022-12-19T14:57:54;102356.78;;;3.69;69.18
75697;BME280;64312;44.738;20.612;2022-12-19T15:00:26;102350.25;;;3.61;68.71
75697;BME280;64312;44.738;20.612;2022-12-19T15:02:54;102348.16;;;3.51;69.35
75697;BME280;64312;44.738;20.612;2022-12-19T15:05:20;102351.41;;;3.42;69.83
75697;BME280;64312;44.738;20.612;2022-12-19T15:07:49;102348.25;;;3.36;70.01